sensor_id;sensor_type;location;lat;lon;timestamp;pressure;altitude;pressure_sealevel;temperature;humidity
80988;BME280;70452;39.386;-3.210;2023-07-30T00:00:18;94224.88;;;27.69;27.68
80988;BME280;70452;39.386;-3.210;2023-07-30T00:02:43;94215.28;;;27.67;27.83
80988;BME280;70452;39.386;-3.210;2023-07-30T00:05:18;94218.88;;;27.67;27.67
80988;BME280;70452;39.386;-3.210;2023-07-30T00:07:59;94228.84;;;27.61;27.73
80988;BME280;70452;39.386;-3.210;2023-07-30T00:10:29;94224.41;;;27.53;28.20
80988;BME280;70452;39.386;-3.210;2023-07-30T00:13:00;94229.22;;;27.53;28.03
80988;BME280;70452;39.386;-3.210;2023-07-30T00:15:35;94222.00;;;27.52;28.38
80988;BME280;70452;39.386;-3.210;2023-07-30T00:18:07;94222.34;;;27.43;28.40
80988;BME280;70452;39.386;-3.210;2023-07-30T00:20:37;94229.56;;;27.44;28.54
80988;BME280;70452;39.386;-3.210;2023-07-30T00:23:06;94224.28;;;27.35;29.02
80988;BME280;70452;39.386;-3.210;2023-07-30T00:25:41;94230.31;;;27.34;29.14
80988;BME280;70452;39.386;-3.210;2023-07-30T00:28:36;94225.06;;;27.28;29.17
80988;BME280;70452;39.386;-3.210;2023-07-30T00:31:01;94230.59;;;27.25;29.13
80988;BME280;70452;39.386;-3.210;2023-07-30T00:33:33;94233.38;;;27.21;29.30
80988;BME280;70452;39.386;-3.210;2023-07-30T00:36:06;94225.78;;;27.18;29.51
80988;BME280;70452;39.386;-3.210;2023-07-30T00:38:42;94232.19;;;27.22;29.72
80988;BME280;70452;39.386;-3.210;2023-07-30T00:41:14;94227.00;;;27.24;29.67
80988;BME280;70452;39.386;-3.210;2023-07-30T00:43:51;94223.78;;;27.19;29.73
80988;BME280;70452;39.386;-3.210;2023-07-30T00:46:20;94235.31;;;27.13;29.70
80988;BME280;70452;39.386;-3.210;2023-07-30T00:48:56;94234.56;;;27.17;30.27
80988;BME280;70452;39.386;-3.210;2023-07-30T00:51:28;94237.31;;;27.13;30.08
80988;BME280;70452;39.386;-3.210;2023-07-30T00:54:13;94232.94;;;27.16;30.22
80988;BME280;70452;39.386;-3.210;2023-07-30T00:56:56;94233.69;;;27.09;30.15
80988;BME280;70452;39.386;-3.210;2023-07-30T00:59:31;94231.22;;;27.00;30.72
80988;BME280;70452;39.386;-3.210;2023-07-30T01:02:03;94236.41;;;26.98;30.44
80988;BME280;70452;39.386;-3.210;2023-07-30T01:04:33;94232.81;;;26.98;30.63
80988;BME280;70452;39.386;-3.210;2023-07-30T01:07:19;94239.56;;;26.93;30.63
80988;BME280;70452;39.386;-3.210;2023-07-30T01:12:33;94240.31;;;26.90;30.86
80988;BME280;70452;39.386;-3.210;2023-07-30T01:15:11;94242.69;;;26.84;30.70
80988;BME280;70452;39.386;-3.210;2023-07-30T01:17:58;94242.28;;;26.82;30.62
80988;BME280;70452;39.386;-3.210;2023-07-30T01:20:31;94238.22;;;26.76;31.00
80988;BME280;70452;39.386;-3.210;2023-07-30T01:23:00;94244.97;;;26.75;30.74
80988;BME280;70452;39.386;-3.210;2023-07-30T01:25:32;94238.22;;;26.76;30.75
80988;BME280;70452;39.386;-3.210;2023-07-30T01:28:13;94243.41;;;26.78;30.70
80988;BME280;70452;39.386;-3.210;2023-07-30T01:30:46;94242.56;;;26.70;30.68
80988;BME280;70452;39.386;-3.210;2023-07-30T01:33:18;94240.97;;;26.72;30.68
80988;BME280;70452;39.386;-3.210;2023-07-30T01:35:51;94240.59;;;26.74;30.59
80988;BME280;70452;39.386;-3.210;2023-07-30T01:38:29;94249.34;;;26.69;30.98
80988;BME280;70452;39.386;-3.210;2023-07-30T01:41:02;94245.72;;;26.65;31.11
80988;BME280;70452;39.386;-3.210;2023-07-30T01:43:31;94248.50;;;26.65;31.03
80988;BME280;70452;39.386;-3.210;2023-07-30T01:46:01;94252.00;;;26.58;31.01
80988;BME280;70452;39.386;-3.210;2023-07-30T01:48:33;94249.63;;;26.60;31.11
80988;BME280;70452;39.386;-3.210;2023-07-30T01:51:25;94253.19;;;26.57;31.09
80988;BME280;70452;39.386;-3.210;2023-07-30T01:54:02;94255.16;;;26.53;31.39
80988;BME280;70452;39.386;-3.210;2023-07-30T01:56:32;94249.13;;;26.51;31.16
80988;BME280;70452;39.386;-3.210;2023-07-30T01:59:13;94255.41;;;26.41;31.35
80988;BME280;70452;39.386;-3.210;2023-07-30T02:01:41;94255.75;;;26.35;31.24
80988;BME280;70452;39.386;-3.210;2023-07-30T02:04:10;94261.78;;;26.37;31.28
80988;BME280;70452;39.386;-3.210;2023-07-30T02:06:46;94266.47;;;26.30;31.33
80988;BME280;70452;39.386;-3.210;2023-07-30T02:09:15;94258.84;;;26.27;31.61
80988;BME280;70452;39.386;-3.210;2023-07-30T02:11:44;94270.44;;;26.25;31.48
80988;BME280;70452;39.386;-3.210;2023-07-30T02:14:13;94274.34;;;26.20;31.46
80988;BME280;70452;39.386;-3.210;2023-07-30T02:17:07;94275.91;;;26.18;31.31
80988;BME280;70452;39.386;-3.210;2023-07-30T02:19:42;94274.63;;;26.08;30.91
80988;BME280;70452;39.386;-3.210;2023-07-30T02:22:18;94272.50;;;25.98;31.28
80988;BME280;70452;39.386;-3.210;2023-07-30T02:24:56;94269.19;;;25.92;30.80
80988;BME280;70452;39.386;-3.210;2023-07-30T02:27:26;94277.94;;;25.91;30.28
80988;BME280;70452;39.386;-3.210;2023-07-30T02:29:58;94276.47;;;25.97;30.37
80988;BME280;70452;39.386;-3.210;2023-07-30T02:32:32;94274.72;;;25.89;29.96
80988;BME280;70452;39.386;-3.210;2023-07-30T02:35:04;94275.06;;;25.83;29.80
80988;BME280;70452;39.386;-3.210;2023-07-30T02:37:33;94272.28;;;25.83;29.97
80988;BME280;70452;39.386;-3.210;2023-07-30T02:40:09;94280.94;;;25.75;29.84
80988;BME280;70452;39.386;-3.210;2023-07-30T02:42:37;94291.53;;;25.62;29.83
80988;BME280;70452;39.386;-3.210;2023-07-30T02:45:22;94288.00;;;25.38;29.81
80988;BME280;70452;39.386;-3.210;2023-07-30T02:47:54;94284.38;;;25.11;30.00
80988;BME280;70452;39.386;-3.210;2023-07-30T02:50:34;94285.44;;;25.03;30.52
80988;BME280;70452;39.386;-3.210;2023-07-30T02:53:06;94288.59;;;25.01;30.35
80988;BME280;70452;39.386;-3.210;2023-07-30T02:55:37;94287.16;;;25.11;30.67
80988;BME280;70452;39.386;-3.210;2023-07-30T02:58:11;94284.38;;;25.11;30.35
80988;BME280;70452;39.386;-3.210;2023-07-30T03:00:40;94287.44;;;25.02;30.52
80988;BME280;70452;39.386;-3.210;2023-07-30T03:03:11;94297.78;;;25.02;30.98
80988;BME280;70452;39.386;-3.210;2023-07-30T03:05:41;94304.16;;;25.02;31.27
80988;BME280;70452;39.386;-3.210;2023-07-30T03:08:16;94301.38;;;25.02;30.54
80988;BME280;70452;39.386;-3.210;2023-07-30T03:10:55;94296.91;;;24.98;30.61
80988;BME280;70452;39.386;-3.210;2023-07-30T03:13:33;94294.25;;;24.82;31.32
80988;BME280;70452;39.386;-3.210;2023-07-30T03:16:03;94291.78;;;24.77;31.54
80988;BME280;70452;39.386;-3.210;2023-07-30T03:18:40;94297.41;;;24.80;31.60
80988;BME280;70452;39.386;-3.210;2023-07-30T03:21:08;94301.44;;;24.83;31.33
80988;BME280;70452;39.386;-3.210;2023-07-30T03:23:40;94300.25;;;24.84;31.64
80988;BME280;70452;39.386;-3.210;2023-07-30T03:26:20;94296.81;;;24.67;31.44
80988;BME280;70452;39.386;-3.210;2023-07-30T03:28:52;94295.06;;;24.59;31.75
80988;BME280;70452;39.386;-3.210;2023-07-30T03:31:25;94288.53;;;24.51;32.24
80988;BME280;70452;39.386;-3.210;2023-07-30T03:33:57;94289.78;;;24.54;32.02
80988;BME280;70452;39.386;-3.210;2023-07-30T03:36:29;94302.00;;;24.49;32.29
80988;BME280;70452;39.386;-3.210;2023-07-30T03:39:02;94298.38;;;24.45;32.31
80988;BME280;70452;39.386;-3.210;2023-07-30T03:41:36;94295.22;;;24.47;32.71
80988;BME280;70452;39.386;-3.210;2023-07-30T03:44:08;94302.47;;;24.51;32.35
80988;BME280;70452;39.386;-3.210;2023-07-30T03:46:45;94297.25;;;24.50;32.38
80988;BME280;70452;39.386;-3.210;2023-07-30T03:49:17;94297.94;;;24.43;32.49
80988;BME280;70452;39.386;-3.210;2023-07-30T03:51:53;94302.91;;;24.34;32.43
80988;BME280;70452;39.386;-3.210;2023-07-30T03:54:29;94303.56;;;24.27;32.62
80988;BME280;70452;39.386;-3.210;2023-07-30T03:57:10;94305.63;;;24.30;32.84
80988;BME280;70452;39.386;-3.210;2023-07-30T03:59:39;94304.97;;;24.37;32.81
80988;BME280;70452;39.386;-3.210;2023-07-30T04:02:07;94304.91;;;24.33;32.99
80988;BME280;70452;39.386;-3.210;2023-07-30T04:04:36;94310.22;;;24.42;33.26
80988;BME280;70452;39.386;-3.210;2023-07-30T04:07:15;94316.59;;;24.62;32.81
80988;BME280;70452;39.386;-3.210;2023-07-30T04:09:47;94320.91;;;24.79;32.58
80988;BME280;70452;39.386;-3.210;2023-07-30T04:12:22;94329.28;;;24.60;32.45
80988;BME280;70452;39.386;-3.210;2023-07-30T04:14:48;94326.63;;;24.47;32.51
80988;BME280;70452;39.386;-3.210;2023-07-30T04:17:19;94332.81;;;24.37;32.80
80988;BME280;70452;39.386;-3.210;2023-07-30T04:20:16;94335.75;;;24.25;32.72
80988;BME280;70452;39.386;-3.210;2023-07-30T04:22:46;94335.97;;;24.16;33.20
80988;BME280;70452;39.386;-3.210;2023-07-30T04:25:17;94340.88;;;24.23;33.28
80988;BME280;70452;39.386;-3.210;2023-07-30T04:27:57;94336.56;;;24.06;33.55
80988;BME280;70452;39.386;-3.210;2023-07-30T04:30:31;94338.09;;;24.03;33.72
80988;BME280;70452;39.386;-3.210;2023-07-30T04:33:00;94344.53;;;23.88;33.71
80988;BME280;70452;39.386;-3.210;2023-07-30T04:35:42;94340.16;;;23.87;33.80
80988;BME280;70452;39.386;-3.210;2023-07-30T04:38:15;94341.91;;;23.79;34.10
80988;BME280;70452;39.386;-3.210;2023-07-30T04:40:47;94351.19;;;23.83;34.06
80988;BME280;70452;39.386;-3.210;2023-07-30T04:43:17;94346.50;;;23.87;33.93
80988;BME280;70452;39.386;-3.210;2023-07-30T04:45:42;94348.94;;;23.89;33.77
80988;BME280;70452;39.386;-3.210;2023-07-30T04:48:15;94349.84;;;23.77;33.94
80988;BME280;70452;39.386;-3.210;2023-07-30T04:50:56;94349.75;;;23.73;34.13
80988;BME280;70452;39.386;-3.210;2023-07-30T04:53:25;94345.47;;;23.76;34.21
80988;BME280;70452;39.386;-3.210;2023-07-30T04:55:59;94342.50;;;23.85;34.16
80988;BME280;70452;39.386;-3.210;2023-07-30T04:58:53;94343.16;;;23.98;33.93
80988;BME280;70452;39.386;-3.210;2023-07-30T05:01:24;94347.56;;;23.99;33.54
80988;BME280;70452;39.386;-3.210;2023-07-30T05:04:01;94347.56;;;23.99;33.89
80988;BME280;70452;39.386;-3.210;2023-07-30T05:06:38;94352.69;;;23.96;33.88
80988;BME280;70452;39.386;-3.210;2023-07-30T05:09:07;94353.41;;;23.93;33.60
80988;BME280;70452;39.386;-3.210;2023-07-30T05:11:42;94359.63;;;23.87;33.81
80988;BME280;70452;39.386;-3.210;2023-07-30T05:14:21;94349.66;;;23.86;34.13
80988;BME280;70452;39.386;-3.210;2023-07-30T05:16:52;94353.06;;;23.79;34.19
80988;BME280;70452;39.386;-3.210;2023-07-30T05:19:22;94351.38;;;23.74;34.31
80988;BME280;70452;39.386;-3.210;2023-07-30T05:22:00;94352.00;;;24.03;33.77
80988;BME280;70452;39.386;-3.210;2023-07-30T05:24:43;94360.84;;;24.48;32.95
80988;BME280;70452;39.386;-3.210;2023-07-30T05:27:15;94358.63;;;24.77;32.21
80988;BME280;70452;39.386;-3.210;2023-07-30T05:29:47;94361.44;;;25.23;31.73
80988;BME280;70452;39.386;-3.210;2023-07-30T05:32:13;94365.66;;;25.63;30.92
80988;BME280;70452;39.386;-3.210;2023-07-30T05:34:48;94363.25;;;26.15;30.43
80988;BME280;70452;39.386;-3.210;2023-07-30T05:37:22;94366.28;;;26.67;29.74
80988;BME280;70452;39.386;-3.210;2023-07-30T05:40:06;94356.34;;;27.14;28.38
80988;BME280;70452;39.386;-3.210;2023-07-30T05:42:42;94362.25;;;27.46;28.18
80988;BME280;70452;39.386;-3.210;2023-07-30T05:45:16;94356.66;;;28.05;27.14
80988;BME280;70452;39.386;-3.210;2023-07-30T05:48:02;94362.44;;;28.41;26.75
80988;BME280;70452;39.386;-3.210;2023-07-30T05:50:28;94378.63;;;28.88;25.95
80988;BME280;70452;39.386;-3.210;2023-07-30T05:52:57;94376.25;;;28.97;25.74
80988;BME280;70452;39.386;-3.210;2023-07-30T05:55:44;94373.06;;;29.02;25.67
80988;BME280;70452;39.386;-3.210;2023-07-30T05:58:24;94375.44;;;29.00;25.55
80988;BME280;70452;39.386;-3.210;2023-07-30T06:01:03;94377.94;;;29.63;25.09
80988;BME280;70452;39.386;-3.210;2023-07-30T06:03:32;94385.94;;;30.04;24.51
80988;BME280;70452;39.386;-3.210;2023-07-30T06:06:22;94387.91;;;30.21;24.02
80988;BME280;70452;39.386;-3.210;2023-07-30T06:09:00;94388.25;;;30.34;24.14
80988;BME280;70452;39.386;-3.210;2023-07-30T06:11:32;94385.81;;;30.54;23.59
80988;BME280;70452;39.386;-3.210;2023-07-30T06:14:01;94389.75;;;30.75;23.55
80988;BME280;70452;39.386;-3.210;2023-07-30T06:16:44;94384.88;;;30.93;23.28
80988;BME280;70452;39.386;-3.210;2023-07-30T06:19:30;94392.00;;;31.12;23.03
80988;BME280;70452;39.386;-3.210;2023-07-30T06:22:04;94392.56;;;31.49;22.69
80988;BME280;70452;39.386;-3.210;2023-07-30T06:24:39;94398.31;;;31.27;22.79
80988;BME280;70452;39.386;-3.210;2023-07-30T06:27:05;94402.25;;;31.40;22.71
80988;BME280;70452;39.386;-3.210;2023-07-30T06:29:35;94399.47;;;31.37;22.79
80988;BME280;70452;39.386;-3.210;2023-07-30T06:32:29;94412.88;;;31.74;22.32
80988;BME280;70452;39.386;-3.210;2023-07-30T06:35:01;94407.97;;;31.82;22.25
80988;BME280;70452;39.386;-3.210;2023-07-30T06:37:31;94412.19;;;31.59;22.67
80988;BME280;70452;39.386;-3.210;2023-07-30T06:40:00;94416.03;;;31.84;22.51
80988;BME280;70452;39.386;-3.210;2023-07-30T06:42:38;94419.25;;;32.31;21.83
80988;BME280;70452;39.386;-3.210;2023-07-30T06:45:07;94412.41;;;32.66;21.55
80988;BME280;70452;39.386;-3.210;2023-07-30T06:47:51;94414.19;;;32.53;21.66
80988;BME280;70452;39.386;-3.210;2023-07-30T06:50:33;94415.81;;;32.50;21.82
80988;BME280;70452;39.386;-3.210;2023-07-30T06:53:20;94418.19;;;32.52;21.49
80988;BME280;70452;39.386;-3.210;2023-07-30T06:55:48;94423.41;;;32.15;22.04
80988;BME280;70452;39.386;-3.210;2023-07-30T06:58:22;94413.47;;;32.42;21.72
80988;BME280;70452;39.386;-3.210;2023-07-30T07:01:07;94417.66;;;32.26;21.99
80988;BME280;70452;39.386;-3.210;2023-07-30T07:03:39;94418.41;;;32.34;21.77
80988;BME280;70452;39.386;-3.210;2023-07-30T07:06:18;94429.84;;;32.54;22.00
80988;BME280;70452;39.386;-3.210;2023-07-30T07:08:47;94434.25;;;32.59;21.63
80988;BME280;70452;39.386;-3.210;2023-07-30T07:11:23;94435.75;;;32.70;21.95
80988;BME280;70452;39.386;-3.210;2023-07-30T07:13:55;94433.72;;;32.71;21.62
80988;BME280;70452;39.386;-3.210;2023-07-30T07:16:24;94441.97;;;32.51;22.07
80988;BME280;70452;39.386;-3.210;2023-07-30T07:18:53;94449.41;;;32.34;22.57
80988;BME280;70452;39.386;-3.210;2023-07-30T07:21:28;94442.69;;;32.59;22.19
80988;BME280;70452;39.386;-3.210;2023-07-30T07:24:07;94448.19;;;32.73;22.28
80988;BME280;70452;39.386;-3.210;2023-07-30T07:26:37;94447.31;;;32.80;22.23
80988;BME280;70452;39.386;-3.210;2023-07-30T07:29:10;94448.00;;;33.25;21.34
80988;BME280;70452;39.386;-3.210;2023-07-30T07:31:59;94440.97;;;33.37;21.63
80988;BME280;70452;39.386;-3.210;2023-07-30T07:34:24;94455.03;;;33.41;21.65
80988;BME280;70452;39.386;-3.210;2023-07-30T07:36:56;94446.50;;;33.44;21.91
80988;BME280;70452;39.386;-3.210;2023-07-30T07:39:33;94449.34;;;33.44;22.31
80988;BME280;70452;39.386;-3.210;2023-07-30T07:42:04;94448.97;;;33.42;22.52
80988;BME280;70452;39.386;-3.210;2023-07-30T07:44:33;94452.22;;;33.41;22.65
80988;BME280;70452;39.386;-3.210;2023-07-30T07:47:08;94454.63;;;33.42;22.25
80988;BME280;70452;39.386;-3.210;2023-07-30T07:49:34;94456.16;;;33.74;21.98
80988;BME280;70452;39.386;-3.210;2023-07-30T07:52:07;94454.88;;;33.52;22.26
80988;BME280;70452;39.386;-3.210;2023-07-30T07:54:49;94465.09;;;34.24;21.43
80988;BME280;70452;39.386;-3.210;2023-07-30T07:57:24;94460.69;;;34.19;21.72
80988;BME280;70452;39.386;-3.210;2023-07-30T07:59:49;94460.50;;;34.33;21.75
80988;BME280;70452;39.386;-3.210;2023-07-30T08:02:16;94465.44;;;34.49;21.80
80988;BME280;70452;39.386;-3.210;2023-07-30T09:04:58;94467.19;;;35.27;22.37
80988;BME280;70452;39.386;-3.210;2023-07-30T09:10:46;94459.53;;;33.35;24.52
80988;BME280;70452;39.386;-3.210;2023-07-30T09:13:38;94469.25;;;34.39;24.25
80988;BME280;70452;39.386;-3.210;2023-07-30T09:16:25;94467.22;;;34.40;23.79
80988;BME280;70452;39.386;-3.210;2023-07-30T09:18:55;94465.53;;;33.95;24.55
80988;BME280;70452;39.386;-3.210;2023-07-30T09:21:37;94468.09;;;34.36;23.98
80988;BME280;70452;39.386;-3.210;2023-07-30T09:24:10;94464.47;;;34.80;22.69
80988;BME280;70452;39.386;-3.210;2023-07-30T09:26:57;94469.06;;;34.50;23.26
80988;BME280;70452;39.386;-3.210;2023-07-30T09:29:35;94481.72;;;34.42;24.31
80988;BME280;70452;39.386;-3.210;2023-07-30T09:32:13;94477.63;;;33.41;25.19
80988;BME280;70452;39.386;-3.210;2023-07-30T09:34:50;94478.78;;;34.49;24.30
80988;BME280;70452;39.386;-3.210;2023-07-30T09:37:19;94473.84;;;34.97;23.48
80988;BME280;70452;39.386;-3.210;2023-07-30T09:39:53;94476.25;;;34.98;23.01
80988;BME280;70452;39.386;-3.210;2023-07-30T09:42:31;94467.19;;;35.07;23.12
80988;BME280;70452;39.386;-3.210;2023-07-30T09:45:02;94477.13;;;34.95;22.79
80988;BME280;70452;39.386;-3.210;2023-07-30T09:47:39;94471.06;;;33.48;24.34
80988;BME280;70452;39.386;-3.210;2023-07-30T09:50:18;94478.25;;;34.07;24.36
80988;BME280;70452;39.386;-3.210;2023-07-30T09:53:07;94476.03;;;35.09;23.31
80988;BME280;70452;39.386;-3.210;2023-07-30T09:55:41;94478.16;;;34.61;23.70
80988;BME280;70452;39.386;-3.210;2023-07-30T09:58:26;94482.84;;;34.91;23.07
80988;BME280;70452;39.386;-3.210;2023-07-30T10:01:19;94478.28;;;35.38;22.74
80988;BME280;70452;39.386;-3.210;2023-07-30T10:03:56;94484.81;;;35.35;22.91
80988;BME280;70452;39.386;-3.210;2023-07-30T10:06:32;94476.63;;;34.80;23.07
80988;BME280;70452;39.386;-3.210;2023-07-30T10:09:01;94484.31;;;35.40;22.55
80988;BME280;70452;39.386;-3.210;2023-07-30T10:11:40;94471.25;;;35.46;22.17
80988;BME280;70452;39.386;-3.210;2023-07-30T10:14:17;94477.19;;;34.91;23.46
80988;BME280;70452;39.386;-3.210;2023-07-30T10:17:19;94471.97;;;35.86;22.09
80988;BME280;70452;39.386;-3.210;2023-07-30T10:19:49;94472.31;;;35.52;22.22
80988;BME280;70452;39.386;-3.210;2023-07-30T10:31:01;94464.16;;;35.91;21.31
80988;BME280;70452;39.386;-3.210;2023-07-30T10:33:53;94455.94;;;36.29;21.05
80988;BME280;70452;39.386;-3.210;2023-07-30T10:36:44;94465.63;;;36.32;20.73
80988;BME280;70452;39.386;-3.210;2023-07-30T10:39:29;94459.66;;;36.10;21.18
80988;BME280;70452;39.386;-3.210;2023-07-30T10:42:07;94461.69;;;35.56;21.49
80988;BME280;70452;39.386;-3.210;2023-07-30T10:44:51;94461.38;;;35.71;21.53
80988;BME280;70452;39.386;-3.210;2023-07-30T10:47:32;94453.97;;;36.59;20.90
80988;BME280;70452;39.386;-3.210;2023-07-30T10:50:16;94460.00;;;36.61;20.62
80988;BME280;70452;39.386;-3.210;2023-07-30T10:52:45;94455.69;;;36.40;21.24
80988;BME280;70452;39.386;-3.210;2023-07-30T10:55:11;94449.81;;;36.47;20.85
80988;BME280;70452;39.386;-3.210;2023-07-30T10:57:45;94451.13;;;36.59;20.89
80988;BME280;70452;39.386;-3.210;2023-07-30T11:00:16;94451.66;;;36.70;20.82
80988;BME280;70452;39.386;-3.210;2023-07-30T11:02:58;94442.03;;;36.18;20.80
80988;BME280;70452;39.386;-3.210;2023-07-30T11:05:50;94442.75;;;36.68;20.29
80988;BME280;70452;39.386;-3.210;2023-07-30T11:08:21;94446.03;;;36.67;20.15
80988;BME280;70452;39.386;-3.210;2023-07-30T11:10:50;94451.38;;;36.81;20.05
80988;BME280;70452;39.386;-3.210;2023-07-30T11:13:25;94445.72;;;37.23;19.32
80988;BME280;70452;39.386;-3.210;2023-07-30T11:15:54;94445.78;;;37.49;19.16
80988;BME280;70452;39.386;-3.210;2023-07-30T11:18:20;94437.22;;;37.23;19.41
80988;BME280;70452;39.386;-3.210;2023-07-30T11:21:21;94435.25;;;37.20;19.72
80988;BME280;70452;39.386;-3.210;2023-07-30T11:23:54;94440.53;;;37.47;19.15
80988;BME280;70452;39.386;-3.210;2023-07-30T11:26:58;94437.06;;;37.14;19.38
80988;BME280;70452;39.386;-3.210;2023-07-30T11:29:31;94436.88;;;37.34;18.86
80988;BME280;70452;39.386;-3.210;2023-07-30T11:32:14;94433.38;;;37.56;18.91
80988;BME280;70452;39.386;-3.210;2023-07-30T11:34:55;94433.63;;;37.48;19.73
80988;BME280;70452;39.386;-3.210;2023-07-30T11:37:36;94424.66;;;37.50;18.38
80988;BME280;70452;39.386;-3.210;2023-07-30T11:40:11;94425.41;;;37.63;18.34
80988;BME280;70452;39.386;-3.210;2023-07-30T11:42:44;94426.56;;;38.04;17.66
80988;BME280;70452;39.386;-3.210;2023-07-30T11:45:25;94427.38;;;38.18;17.64
80988;BME280;70452;39.386;-3.210;2023-07-30T11:48:10;94428.75;;;38.13;17.59
80988;BME280;70452;39.386;-3.210;2023-07-30T11:50:55;94419.75;;;37.89;17.99
80988;BME280;70452;39.386;-3.210;2023-07-30T11:53:49;94414.66;;;37.84;18.13
80988;BME280;70452;39.386;-3.210;2023-07-30T11:56:32;94413.31;;;37.76;17.97
80988;BME280;70452;39.386;-3.210;2023-07-30T11:59:09;94406.25;;;37.93;17.38
80988;BME280;70452;39.386;-3.210;2023-07-30T12:01:39;94413.16;;;37.92;17.59
80988;BME280;70452;39.386;-3.210;2023-07-30T12:04:10;94399.03;;;38.27;17.28
80988;BME280;70452;39.386;-3.210;2023-07-30T12:07:02;94395.44;;;38.14;17.52
80988;BME280;70452;39.386;-3.210;2023-07-30T12:09:28;94392.53;;;38.39;17.44
80988;BME280;70452;39.386;-3.210;2023-07-30T12:12:01;94395.53;;;37.97;17.19
80988;BME280;70452;39.386;-3.210;2023-07-30T12:17:23;94394.34;;;38.33;16.29
80988;BME280;70452;39.386;-3.210;2023-07-30T12:20:11;94386.84;;;38.26;16.65
80988;BME280;70452;39.386;-3.210;2023-07-30T12:22:42;94392.34;;;38.21;16.40
80988;BME280;70452;39.386;-3.210;2023-07-30T12:25:09;94377.78;;;38.54;15.74
80988;BME280;70452;39.386;-3.210;2023-07-30T12:27:57;94381.53;;;38.86;15.81
80988;BME280;70452;39.386;-3.210;2023-07-30T12:30:33;94372.41;;;38.91;15.60
80988;BME280;70452;39.386;-3.210;2023-07-30T12:33:11;94380.34;;;38.96;15.56
80988;BME280;70452;39.386;-3.210;2023-07-30T12:35:53;94379.72;;;38.57;15.27
80988;BME280;70452;39.386;-3.210;2023-07-30T12:38:37;94377.31;;;39.12;15.24
80988;BME280;70452;39.386;-3.210;2023-07-30T12:41:15;94381.13;;;38.74;15.45
80988;BME280;70452;39.386;-3.210;2023-07-30T12:43:48;94369.69;;;38.65;15.75
80988;BME280;70452;39.386;-3.210;2023-07-30T12:46:25;94364.13;;;38.83;15.54
80988;BME280;70452;39.386;-3.210;2023-07-30T12:49:03;94357.22;;;38.94;15.78
80988;BME280;70452;39.386;-3.210;2023-07-30T12:51:47;94356.75;;;38.95;15.30
80988;BME280;70452;39.386;-3.210;2023-07-30T12:54:21;94352.41;;;39.04;14.75
80988;BME280;70452;39.386;-3.210;2023-07-30T12:56:57;94353.44;;;38.97;14.77
80988;BME280;70452;39.386;-3.210;2023-07-30T12:59:23;94348.06;;;39.21;14.48
80988;BME280;70452;39.386;-3.210;2023-07-30T13:02:00;94358.97;;;39.45;14.32
80988;BME280;70452;39.386;-3.210;2023-07-30T13:04:35;94337.09;;;39.42;14.55
80988;BME280;70452;39.386;-3.210;2023-07-30T13:07:11;94347.16;;;39.24;14.80
80988;BME280;70452;39.386;-3.210;2023-07-30T13:12:38;94334.31;;;39.51;14.68
80988;BME280;70452;39.386;-3.210;2023-07-30T13:15:10;94328.19;;;39.62;14.38
80988;BME280;70452;39.386;-3.210;2023-07-30T13:17:39;94334.91;;;39.46;14.21
80988;BME280;70452;39.386;-3.210;2023-07-30T13:22:50;94338.75;;;39.52;13.67
80988;BME280;70452;39.386;-3.210;2023-07-30T13:25:27;94333.28;;;39.67;13.68
80988;BME280;70452;39.386;-3.210;2023-07-30T13:28:05;94330.22;;;40.02;13.08
80988;BME280;70452;39.386;-3.210;2023-07-30T13:30:40;94332.59;;;39.63;13.42
80988;BME280;70452;39.386;-3.210;2023-07-30T13:33:20;94322.19;;;39.78;13.80
80988;BME280;70452;39.386;-3.210;2023-07-30T13:36:17;94325.09;;;39.87;13.34
80988;BME280;70452;39.386;-3.210;2023-07-30T13:38:49;94318.09;;;39.79;13.58
80988;BME280;70452;39.386;-3.210;2023-07-30T13:41:23;94322.94;;;39.60;13.68
80988;BME280;70452;39.386;-3.210;2023-07-30T13:43:56;94316.81;;;39.30;13.97
80988;BME280;70452;39.386;-3.210;2023-07-30T13:46:36;94324.81;;;39.54;14.17
80988;BME280;70452;39.386;-3.210;2023-07-30T13:49:18;94308.09;;;39.65;13.76
80988;BME280;70452;39.386;-3.210;2023-07-30T13:51:47;94318.28;;;39.44;14.02
80988;BME280;70452;39.386;-3.210;2023-07-30T13:54:16;94305.94;;;39.47;14.15
80988;BME280;70452;39.386;-3.210;2023-07-30T13:56:51;94306.00;;;39.56;14.11
80988;BME280;70452;39.386;-3.210;2023-07-30T13:59:29;94311.59;;;39.38;14.47
80988;BME280;70452;39.386;-3.210;2023-07-30T14:02:04;94307.44;;;39.30;14.40
80988;BME280;70452;39.386;-3.210;2023-07-30T14:04:50;94304.19;;;39.41;14.38
80988;BME280;70452;39.386;-3.210;2023-07-30T14:07:25;94299.88;;;39.36;14.06
80988;BME280;70452;39.386;-3.210;2023-07-30T14:09:51;94306.88;;;39.44;14.03
80988;BME280;70452;39.386;-3.210;2023-07-30T14:12:23;94303.78;;;39.61;13.71
80988;BME280;70452;39.386;-3.210;2023-07-30T14:14:52;94303.63;;;39.64;14.49
80988;BME280;70452;39.386;-3.210;2023-07-30T14:17:27;94296.78;;;39.52;14.01
80988;BME280;70452;39.386;-3.210;2023-07-30T14:19:55;94292.91;;;39.78;13.84
80988;BME280;70452;39.386;-3.210;2023-07-30T14:22:46;94281.31;;;39.63;14.05
80988;BME280;70452;39.386;-3.210;2023-07-30T14:25:15;94283.69;;;39.55;13.99
80988;BME280;70452;39.386;-3.210;2023-07-30T14:27:41;94280.09;;;39.82;13.71
80988;BME280;70452;39.386;-3.210;2023-07-30T14:30:21;94283.22;;;39.66;13.65
80988;BME280;70452;39.386;-3.210;2023-07-30T14:33:05;94283.69;;;39.55;14.07
80988;BME280;70452;39.386;-3.210;2023-07-30T14:35:34;94278.19;;;39.88;13.39
80988;BME280;70452;39.386;-3.210;2023-07-30T14:38:04;94283.56;;;39.86;13.45
80988;BME280;70452;39.386;-3.210;2023-07-30T14:40:38;94273.00;;;39.96;13.02
80988;BME280;70452;39.386;-3.210;2023-07-30T14:43:10;94264.47;;;39.96;13.10
80988;BME280;70452;39.386;-3.210;2023-07-30T14:45:45;94269.00;;;39.84;12.82
80988;BME280;70452;39.386;-3.210;2023-07-30T14:48:14;94266.13;;;39.66;12.40
80988;BME280;70452;39.386;-3.210;2023-07-30T14:50:42;94264.75;;;39.89;12.42
80988;BME280;70452;39.386;-3.210;2023-07-30T14:53:24;94261.44;;;39.41;12.82
80988;BME280;70452;39.386;-3.210;2023-07-30T14:55:59;94247.94;;;39.32;12.61